Terminal Aerodrome Forecast
Issued by NWS

Home | Current Version | Previous Version | Text Only | Print | Product List | Glossary On
Versions: 1 2 3 4 5 6 7 8 9 10 11 12 13 14 15 16 17 18 19
000
FTUS43 KILX 261700
TAFDEC
TAF
KDEC 261729Z 2618/2718 19012G20KT P6SM BKN250
     FM270100 19012KT P6SM BKN025
     FM270700 19011KT 5SM -DZ BR OVC025 WS020/22035KT
      TEMPO 2711/2715 -RA OVC007=

USA.gov is the U.S. government's official web portal to all federal, state and local government web resources and services.